TJPS/PSE METAR and TAF weather

Enter ICAO airport designator
Station Type Date Time Source
TJPS METAR 2023/03/28 11:55 UTC NOAA

TJPS 281155Z AUTO 00000KT 10SM CLR 24/18 A3008 RMK AO2 TSNO


Station Type Date Time Source
TJPS Decoded METAR 2023/03/28 11:55 UTC NOAA

Ponce, Mercedita Airport, PR, United States (TJPS) 18-01N 066-34W
Mar 28, 2023 - 07:55 AM EDT / 2023.03.28 1155 UTC
Wind: Calm:0
Visibility: 10 mile(s):0
Sky conditions: clear
Temperature: 75 F (24 C)
Dew Point: 64 F (18 C)
Relative Humidity: 69%
Pressure (altimeter): 30.08 in. Hg (1018 hPa)
ob: TJPS 281155Z AUTO 00000KT 10SM CLR 24/18 A3008 RMK AO2 TSNO
cycle: 12

Station Type Date Time Source
TJPS TAF 2023/03/28 12:42 UTC NOAA

TAF TJPS 281136Z 2812/2912 09004KT P6SM FEW060
FM281500 15016KT P6SM FEW035
FM282300 10008KT P6SM FEW035
FM290200 05002KT P6SM FEW040

Example: see airport list